プラハ の空港の天気 - METARとTAF

ルズィニエ国際空港(プラハ) ( LKPR / PRG ) - チェコ プラハ
飛行場実況気象(Metar)
観測時間09/23 14:30 CEST (09/23 12:30 UTC)
風向・風速北北西 5m/s
視程10km以上
天気現象
少しの雲 雲底高度 980m
気温17℃
湿度59%
気圧1021hPa
METARLKPR 231230Z 34010KT 9999 FEW032 17/09 Q1021 NOSIG
過去の天気等 Google飛行場航空写真 Wunderground天気予報

過去48時間のMETAR

飛行場予報(TAF)
発表時間: 9/23 13:00 CEST (9/23 11:00 UTC)
予報対象時間: 23日14時 CEST ~ 24日20時 CEST
風向・風速北北西 6m/s
視程10km以上
全天の8割程度の雲 雲底高度 760m
23日18時 CEST ~ 23日20時 CEST に徐々に
視程7,000m
天気現象弱い雨
全天の8割程度の雲 雲底高度 400m
23日20時 CEST ~ 24日16時 CEST に一時的に
視程4,000m
天気現象雨 もや
全天の8割程度の雲 雲底高度 180m
23日20時 CEST ~ 24日10時 CEST に 確率 30% で一時的に
視程2,000m
天気現象雨 もや
全天の8割程度の雲 雲底高度 90m
24日16時 CEST ~ 24日18時 CEST に徐々に
視程10km以上
全天の8割程度の雲 雲底高度 760m
24日18時 CEST ~ 24日20時 CEST に 確率 30% で一時的に
天気現象弱い雨
TAF LKPR 231100Z 2312/2418 34012KT 9999 BKN025
BECMG 2316/2318 7000 -RA BKN013
TEMPO 2318/2414 4000 RA BR BKN006
PROB30 TEMPO 2318/2408 2000 RA BR BKN003
BECMG 2414/2416 9999 BKN025
PROB30 TEMPO 2416/2418 -RA